Terminal Aerodrome Forecast
Issued by NWS

Current Version | Previous Version | Text Only | Print | Product List | Glossary On
Versions: 1 2 3 4 5 6 7 8 9 10 11 12 13 14 15 16 17 18 19
262
FTUS41 KILN 222054 AAC
TAFLUK
TAF AMD
KLUK 222054Z 2221/2318 29007KT P6SM SCT030 BKN050
     FM230000 29006KT P6SM SKC
     FM230500 VRB02KT P6SM SKC
      TEMPO 2308/2312 4SM BR
     FM231500 31006KT P6SM SCT050=

USA.gov is the U.S. government's official web portal to all federal, state and local government web resources and services.